<?xml version="1.0" encoding="utf-8"?>
<gpx xmlns:xsi="http://www.w3.org/2001/XMLSchema-instance" xmlns:xsd="http://www.w3.org/2001/XMLSchema" version="1.1" creator="Shapelink.com" xmlns="http://www.topografix.com/GPX/1/1" xmlns:gpxtpx="http://www.garmin.com/xmlschemas/TrackPointExtension/v1">
  <metadata>
    <name>Cykling 12.52 km, 2019-09-02</name>
    <desc></desc>
    <author><name>Henrik Staffas</name></author> 
    <time>2019-09-02T16:44:55Z</time>
  </metadata>
  <trk>
    <name>Cykling 12.52 km, 2019-09-02</name>
    <trkseg>
      <trkpt lat="59.333698585435" lon="18.018331126755">
        <ele>74.2</ele>
        <time>2019-09-02T16:44:55Z</time>
      </trkpt>
      <trkpt lat="59.333665393111" lon="18.018276392948">
        <ele>74.2</ele>
        <time>2019-09-02T16:44:57Z</time>
      </trkpt>
      <trkpt lat="59.333268342508" lon="18.017532080228">
        <ele>74.6</ele>
        <time>2019-09-02T16:45:13Z</time>
      </trkpt>
      <trkpt lat="59.333239760229" lon="18.017472149643">
        <ele>75</ele>
        <time>2019-09-02T16:45:15Z</time>
      </trkpt>
      <trkpt lat="59.333415109577" lon="18.016995973904">
        <ele>74.6</ele>
        <time>2019-09-02T16:45:23Z</time>
      </trkpt>
      <trkpt lat="59.33374007584" lon="18.016117969879">
        <ele>75</ele>
        <time>2019-09-02T16:45:35Z</time>
      </trkpt>
      <trkpt lat="59.33414156885" lon="18.015360078481">
        <ele>75.4</ele>
        <time>2019-09-02T16:45:47Z</time>
      </trkpt>
      <trkpt lat="59.334205606566" lon="18.015217837638">
        <ele>75.6</ele>
        <time>2019-09-02T16:45:49Z</time>
      </trkpt>
      <trkpt lat="59.334545827887" lon="18.014343940744">
        <ele>75.6</ele>
        <time>2019-09-02T16:45:59Z</time>
      </trkpt>
      <trkpt lat="59.334984285076" lon="18.013794004285">
        <ele>76.6</ele>
        <time>2019-09-02T16:46:10Z</time>
      </trkpt>
      <trkpt lat="59.335148318859" lon="18.013599041291">
        <ele>75.8</ele>
        <time>2019-09-02T16:46:18Z</time>
      </trkpt>
      <trkpt lat="59.335309921891" lon="18.013868435557">
        <ele>77.6</ele>
        <time>2019-09-02T16:46:26Z</time>
      </trkpt>
      <trkpt lat="59.335357363445" lon="18.013922414993">
        <ele>78</ele>
        <time>2019-09-02T16:46:27Z</time>
      </trkpt>
      <trkpt lat="59.33541813222" lon="18.014083766568">
        <ele>78.6</ele>
        <time>2019-09-02T16:46:30Z</time>
      </trkpt>
      <trkpt lat="59.335522654513" lon="18.014216535864">
        <ele>79.8</ele>
        <time>2019-09-02T16:46:33Z</time>
      </trkpt>
      <trkpt lat="59.335676881473" lon="18.014388448633">
        <ele>81.2</ele>
        <time>2019-09-02T16:46:37Z</time>
      </trkpt>
      <trkpt lat="59.335809818407" lon="18.014608054413">
        <ele>82.2</ele>
        <time>2019-09-02T16:46:40Z</time>
      </trkpt>
      <trkpt lat="59.335923728428" lon="18.014820954673">
        <ele>83.2</ele>
        <time>2019-09-02T16:46:43Z</time>
      </trkpt>
      <trkpt lat="59.336032274033" lon="18.015154638112">
        <ele>84</ele>
        <time>2019-09-02T16:46:47Z</time>
      </trkpt>
      <trkpt lat="59.336069070574" lon="18.015219514018">
        <ele>84.4</ele>
        <time>2019-09-02T16:46:48Z</time>
      </trkpt>
      <trkpt lat="59.33623117652" lon="18.015411124252">
        <ele>85.6</ele>
        <time>2019-09-02T16:46:52Z</time>
      </trkpt>
      <trkpt lat="59.336299405186" lon="18.01552444754">
        <ele>86.6</ele>
        <time>2019-09-02T16:46:54Z</time>
      </trkpt>
      <trkpt lat="59.336377692132" lon="18.015730726099">
        <ele>87.6</ele>
        <time>2019-09-02T16:46:57Z</time>
      </trkpt>
      <trkpt lat="59.336459248019" lon="18.015913283881">
        <ele>88.8</ele>
        <time>2019-09-02T16:47:00Z</time>
      </trkpt>
      <trkpt lat="59.336553628213" lon="18.01610866597">
        <ele>89.8</ele>
        <time>2019-09-02T16:47:04Z</time>
      </trkpt>
      <trkpt lat="59.336626047829" lon="18.016265323681">
        <ele>90.8</ele>
        <time>2019-09-02T16:47:07Z</time>
      </trkpt>
      <trkpt lat="59.33672906138" lon="18.016477721027">
        <ele>92</ele>
        <time>2019-09-02T16:47:11Z</time>
      </trkpt>
      <trkpt lat="59.337069450339" lon="18.016870832137">
        <ele>92.4</ele>
        <time>2019-09-02T16:47:23Z</time>
      </trkpt>
      <trkpt lat="59.337478151783" lon="18.016119143345">
        <ele>92.6</ele>
        <time>2019-09-02T16:47:35Z</time>
      </trkpt>
      <trkpt lat="59.337535819255" lon="18.016003221668">
        <ele>93</ele>
        <time>2019-09-02T16:47:37Z</time>
      </trkpt>
      <trkpt lat="59.337835053085" lon="18.015360078481">
        <ele>91.8</ele>
        <time>2019-09-02T16:47:46Z</time>
      </trkpt>
      <trkpt lat="59.337939156283" lon="18.015139383054">
        <ele>90.8</ele>
        <time>2019-09-02T16:47:49Z</time>
      </trkpt>
      <trkpt lat="59.338038900893" lon="18.014912149745">
        <ele>89.6</ele>
        <time>2019-09-02T16:47:52Z</time>
      </trkpt>
      <trkpt lat="59.338123390445" lon="18.014702518426">
        <ele>88.4</ele>
        <time>2019-09-02T16:47:55Z</time>
      </trkpt>
      <trkpt lat="59.338244760357" lon="18.014378055077">
        <ele>87.4</ele>
        <time>2019-09-02T16:48:00Z</time>
      </trkpt>
      <trkpt lat="59.338349701745" lon="18.014189629965">
        <ele>86.4</ele>
        <time>2019-09-02T16:48:05Z</time>
      </trkpt>
      <trkpt lat="59.338517842659" lon="18.01389835894">
        <ele>85.4</ele>
        <time>2019-09-02T16:48:12Z</time>
      </trkpt>
      <trkpt lat="59.338555309752" lon="18.013903136623">
        <ele>85</ele>
        <time>2019-09-02T16:48:13Z</time>
      </trkpt>
      <trkpt lat="59.338597638347" lon="18.013954350032">
        <ele>84.6</ele>
        <time>2019-09-02T16:48:14Z</time>
      </trkpt>
      <trkpt lat="59.338676595845" lon="18.014114444322">
        <ele>83.6</ele>
        <time>2019-09-02T16:48:16Z</time>
      </trkpt>
      <trkpt lat="59.33894188298" lon="18.014664967514">
        <ele>82.8</ele>
        <time>2019-09-02T16:48:22Z</time>
      </trkpt>
      <trkpt lat="59.338980942634" lon="18.014761107907">
        <ele>82.6</ele>
        <time>2019-09-02T16:48:23Z</time>
      </trkpt>
      <trkpt lat="59.339104072745" lon="18.015049948181">
        <ele>81.6</ele>
        <time>2019-09-02T16:48:26Z</time>
      </trkpt>
      <trkpt lat="59.339145227874" lon="18.015129743869">
        <ele>81.2</ele>
        <time>2019-09-02T16:48:27Z</time>
      </trkpt>
      <trkpt lat="59.339173391058" lon="18.015239882035">
        <ele>80.4</ele>
        <time>2019-09-02T16:48:28Z</time>
      </trkpt>
      <trkpt lat="59.339195519274" lon="18.015348260002">
        <ele>79.6</ele>
        <time>2019-09-02T16:48:29Z</time>
      </trkpt>
      <trkpt lat="59.339256371868" lon="18.015508102835">
        <ele>78.4</ele>
        <time>2019-09-02T16:48:32Z</time>
      </trkpt>
      <trkpt lat="59.339319571394" lon="18.015602985943">
        <ele>77.4</ele>
        <time>2019-09-02T16:48:38Z</time>
      </trkpt>
      <trkpt lat="59.339353015175" lon="18.01564682328">
        <ele>76.6</ele>
        <time>2019-09-02T16:48:42Z</time>
      </trkpt>
      <trkpt lat="59.339376316857" lon="18.015656713922">
        <ele>76.2</ele>
        <time>2019-09-02T16:48:43Z</time>
      </trkpt>
      <trkpt lat="59.339399283263" lon="18.015657468293">
        <ele>75.8</ele>
        <time>2019-09-02T16:48:44Z</time>
      </trkpt>
      <trkpt lat="59.339487796127" lon="18.015565770307">
        <ele>75.2</ele>
        <time>2019-09-02T16:48:46Z</time>
      </trkpt>
      <trkpt lat="59.339545463599" lon="18.015476000158">
        <ele>75</ele>
        <time>2019-09-02T16:48:47Z</time>
      </trkpt>
      <trkpt lat="59.339805553956" lon="18.014999656781">
        <ele>74</ele>
        <time>2019-09-02T16:48:51Z</time>
      </trkpt>
      <trkpt lat="59.339864646351" lon="18.01485976287">
        <ele>73.6</ele>
        <time>2019-09-02T16:48:52Z</time>
      </trkpt>
      <trkpt lat="59.339975119793" lon="18.014563378886">
        <ele>72.8</ele>
        <time>2019-09-02T16:48:54Z</time>
      </trkpt>
      <trkpt lat="59.340077546611" lon="18.014277053182">
        <ele>72</ele>
        <time>2019-09-02T16:48:56Z</time>
      </trkpt>
      <trkpt lat="59.340186092216" lon="18.013870531032">
        <ele>71.8</ele>
        <time>2019-09-02T16:48:59Z</time>
      </trkpt>
      <trkpt lat="59.340279047487" lon="18.01308196188">
        <ele>73.2</ele>
        <time>2019-09-02T16:49:06Z</time>
      </trkpt>
      <trkpt lat="59.340357166795" lon="18.012996047405">
        <ele>73.8</ele>
        <time>2019-09-02T16:49:08Z</time>
      </trkpt>
      <trkpt lat="59.340458503966" lon="18.012995125396">
        <ele>74.4</ele>
        <time>2019-09-02T16:49:10Z</time>
      </trkpt>
      <trkpt lat="59.340796126898" lon="18.013113058729">
        <ele>74.8</ele>
        <time>2019-09-02T16:49:20Z</time>
      </trkpt>
      <trkpt lat="59.340901319743" lon="18.013120350982">
        <ele>74.8</ele>
        <time>2019-09-02T16:49:23Z</time>
      </trkpt>
      <trkpt lat="59.340931997497" lon="18.013083470622">
        <ele>74.8</ele>
        <time>2019-09-02T16:49:24Z</time>
      </trkpt>
      <trkpt lat="59.340960998871" lon="18.013021696019">
        <ele>74.6</ele>
        <time>2019-09-02T16:49:25Z</time>
      </trkpt>
      <trkpt lat="59.341020929456" lon="18.012873755484">
        <ele>74.4</ele>
        <time>2019-09-02T16:49:27Z</time>
      </trkpt>
      <trkpt lat="59.341060156748" lon="18.01268801258">
        <ele>74.6</ele>
        <time>2019-09-02T16:49:29Z</time>
      </trkpt>
      <trkpt lat="59.34114883725" lon="18.01186574819">
        <ele>74</ele>
        <time>2019-09-02T16:49:38Z</time>
      </trkpt>
      <trkpt lat="59.341198206641" lon="18.011660224002">
        <ele>73.8</ele>
        <time>2019-09-02T16:49:40Z</time>
      </trkpt>
      <trkpt lat="59.341258556321" lon="18.011432152503">
        <ele>73.6</ele>
        <time>2019-09-02T16:49:42Z</time>
      </trkpt>
      <trkpt lat="59.341328042272" lon="18.011222185908">
        <ele>73.4</ele>
        <time>2019-09-02T16:49:44Z</time>
      </trkpt>
      <trkpt lat="59.341576900883" lon="18.010752883327">
        <ele>72.6</ele>
        <time>2019-09-02T16:49:49Z</time>
      </trkpt>
      <trkpt lat="59.341809833884" lon="18.010478627559">
        <ele>71.4</ele>
        <time>2019-09-02T16:49:53Z</time>
      </trkpt>
      <trkpt lat="59.341867417537" lon="18.010409141608">
        <ele>71</ele>
        <time>2019-09-02T16:49:54Z</time>
      </trkpt>
      <trkpt lat="59.342140835115" lon="18.009926344168">
        <ele>71</ele>
        <time>2019-09-02T16:50:00Z</time>
      </trkpt>
      <trkpt lat="59.342491366173" lon="18.009618057886">
        <ele>71.6</ele>
        <time>2019-09-02T16:50:06Z</time>
      </trkpt>
      <trkpt lat="59.342930326276" lon="18.009599198611">
        <ele>70.6</ele>
        <time>2019-09-02T16:50:12Z</time>
      </trkpt>
      <trkpt lat="59.343068459988" lon="18.009521749855">
        <ele>70.6</ele>
        <time>2019-09-02T16:50:14Z</time>
      </trkpt>
      <trkpt lat="59.343225788251" lon="18.009282027515">
        <ele>70.6</ele>
        <time>2019-09-02T16:50:17Z</time>
      </trkpt>
      <trkpt lat="59.343304829568" lon="18.009020847511">
        <ele>70.2</ele>
        <time>2019-09-02T16:50:19Z</time>
      </trkpt>
      <trkpt lat="59.343397449563" lon="18.00875354872">
        <ele>69</ele>
        <time>2019-09-02T16:50:21Z</time>
      </trkpt>
      <trkpt lat="59.34345134518" lon="18.008634609559">
        <ele>68.8</ele>
        <time>2019-09-02T16:50:22Z</time>
      </trkpt>
      <trkpt lat="59.343618228809" lon="18.008295310247">
        <ele>68</ele>
        <time>2019-09-02T16:50:25Z</time>
      </trkpt>
      <trkpt lat="59.343954426818" lon="18.007762389045">
        <ele>68.8</ele>
        <time>2019-09-02T16:50:31Z</time>
      </trkpt>
      <trkpt lat="59.344186689267" lon="18.007587291154">
        <ele>69</ele>
        <time>2019-09-02T16:50:35Z</time>
      </trkpt>
      <trkpt lat="59.344241423074" lon="18.007568096603">
        <ele>69.2</ele>
        <time>2019-09-02T16:50:36Z</time>
      </trkpt>
      <trkpt lat="59.344392884007" lon="18.007545046378">
        <ele>70</ele>
        <time>2019-09-02T16:50:39Z</time>
      </trkpt>
      <trkpt lat="59.344676192227" lon="18.007464831595">
        <ele>71.2</ele>
        <time>2019-09-02T16:50:47Z</time>
      </trkpt>
      <trkpt lat="59.344806363134" lon="18.007474806056">
        <ele>71.2</ele>
        <time>2019-09-02T16:50:50Z</time>
      </trkpt>
      <trkpt lat="59.344909711961" lon="18.007516045004">
        <ele>71</ele>
        <time>2019-09-02T16:50:52Z</time>
      </trkpt>
      <trkpt lat="59.34540181331" lon="18.007876131428">
        <ele>71.6</ele>
        <time>2019-09-02T16:51:04Z</time>
      </trkpt>
      <trkpt lat="59.345895004306" lon="18.008381727636">
        <ele>71.8</ele>
        <time>2019-09-02T16:51:14Z</time>
      </trkpt>
      <trkpt lat="59.346270345788" lon="18.00865883325">
        <ele>72.4</ele>
        <time>2019-09-02T16:51:20Z</time>
      </trkpt>
      <trkpt lat="59.346461704565" lon="18.008780203162">
        <ele>73.6</ele>
        <time>2019-09-02T16:51:23Z</time>
      </trkpt>
      <trkpt lat="59.34699353612" lon="18.009174403919">
        <ele>74</ele>
        <time>2019-09-02T16:51:31Z</time>
      </trkpt>
      <trkpt lat="59.347385054669" lon="18.009401637228">
        <ele>74</ele>
        <time>2019-09-02T16:51:38Z</time>
      </trkpt>
      <trkpt lat="59.347558308542" lon="18.009393255328">
        <ele>74.6</ele>
        <time>2019-09-02T16:51:41Z</time>
      </trkpt>
      <trkpt lat="59.348082596387" lon="18.009039203872">
        <ele>75.6</ele>
        <time>2019-09-02T16:51:50Z</time>
      </trkpt>
      <trkpt lat="59.348302621262" lon="18.008718680016">
        <ele>76.8</ele>
        <time>2019-09-02T16:51:55Z</time>
      </trkpt>
      <trkpt lat="59.348424242631" lon="18.008549784731">
        <ele>76.8</ele>
        <time>2019-09-02T16:51:59Z</time>
      </trkpt>
      <trkpt lat="59.348566902569" lon="18.008682973122">
        <ele>76.6</ele>
        <time>2019-09-02T16:52:03Z</time>
      </trkpt>
      <trkpt lat="59.348696822019" lon="18.009125118347">
        <ele>77.8</ele>
        <time>2019-09-02T16:52:09Z</time>
      </trkpt>
      <trkpt lat="59.348704784824" lon="18.00944421728">
        <ele>79</ele>
        <time>2019-09-02T16:52:13Z</time>
      </trkpt>
      <trkpt lat="59.348899161085" lon="18.010473933695">
        <ele>79.6</ele>
        <time>2019-09-02T16:52:23Z</time>
      </trkpt>
      <trkpt lat="59.348996055849" lon="18.010853717584">
        <ele>79.6</ele>
        <time>2019-09-02T16:52:27Z</time>
      </trkpt>
      <trkpt lat="59.349049197095" lon="18.011072904269">
        <ele>79.6</ele>
        <time>2019-09-02T16:52:29Z</time>
      </trkpt>
      <trkpt lat="59.349130501525" lon="18.011274321326">
        <ele>79.6</ele>
        <time>2019-09-02T16:52:31Z</time>
      </trkpt>
      <trkpt lat="59.34937315753" lon="18.011699199837">
        <ele>80.2</ele>
        <time>2019-09-02T16:52:36Z</time>
      </trkpt>
      <trkpt lat="59.349586476885" lon="18.012031039258">
        <ele>81.4</ele>
        <time>2019-09-02T16:52:40Z</time>
      </trkpt>
      <trkpt lat="59.34977465054" lon="18.01218509858">
        <ele>81.8</ele>
        <time>2019-09-02T16:52:43Z</time>
      </trkpt>
      <trkpt lat="59.34995989053" lon="18.012282831534">
        <ele>82.4</ele>
        <time>2019-09-02T16:52:46Z</time>
      </trkpt>
      <trkpt lat="59.350024179703" lon="18.012293476547">
        <ele>82.6</ele>
        <time>2019-09-02T16:52:47Z</time>
      </trkpt>
      <trkpt lat="59.350257531799" lon="18.012275120186">
        <ele>83.8</ele>
        <time>2019-09-02T16:52:51Z</time>
      </trkpt>
      <trkpt lat="59.350412764587" lon="18.01222114075">
        <ele>85</ele>
        <time>2019-09-02T16:52:54Z</time>
      </trkpt>
      <trkpt lat="59.350573194153" lon="18.012104967616">
        <ele>86.2</ele>
        <time>2019-09-02T16:52:57Z</time>
      </trkpt>
      <trkpt lat="59.350676207704" lon="18.012021400073">
        <ele>87.2</ele>
        <time>2019-09-02T16:52:59Z</time>
      </trkpt>
      <trkpt lat="59.350770587898" lon="18.011927019879">
        <ele>87.8</ele>
        <time>2019-09-02T16:53:01Z</time>
      </trkpt>
      <trkpt lat="59.350825656981" lon="18.011883014904">
        <ele>88.4</ele>
        <time>2019-09-02T16:53:02Z</time>
      </trkpt>
      <trkpt lat="59.350882150987" lon="18.011838590834">
        <ele>88.8</ele>
        <time>2019-09-02T16:53:03Z</time>
      </trkpt>
      <trkpt lat="59.350996061008" lon="18.011739097681">
        <ele>89.6</ele>
        <time>2019-09-02T16:53:05Z</time>
      </trkpt>
      <trkpt lat="59.351170907442" lon="18.011448748665">
        <ele>89.6</ele>
        <time>2019-09-02T16:53:09Z</time>
      </trkpt>
      <trkpt lat="59.351273585717" lon="18.011351686263">
        <ele>89.2</ele>
        <time>2019-09-02T16:53:11Z</time>
      </trkpt>
      <trkpt lat="59.351514397704" lon="18.011313213342">
        <ele>88.4</ele>
        <time>2019-09-02T16:53:15Z</time>
      </trkpt>
      <trkpt lat="59.351763591591" lon="18.011265939426">
        <ele>87.4</ele>
        <time>2019-09-02T16:53:19Z</time>
      </trkpt>
      <trkpt lat="59.35181731957" lon="18.011268453996">
        <ele>87.4</ele>
        <time>2019-09-02T16:53:20Z</time>
      </trkpt>
      <trkpt lat="59.352073135158" lon="18.011339783965">
        <ele>88.4</ele>
        <time>2019-09-02T16:53:24Z</time>
      </trkpt>
      <trkpt lat="59.352391060625" lon="18.011761728811">
        <ele>88</ele>
        <time>2019-09-02T16:53:30Z</time>
      </trkpt>
      <trkpt lat="59.35271334468" lon="18.011574141889">
        <ele>87.2</ele>
        <time>2019-09-02T16:53:34Z</time>
      </trkpt>
      <trkpt lat="59.35288433544" lon="18.011561569039">
        <ele>87.2</ele>
        <time>2019-09-02T16:53:36Z</time>
      </trkpt>
      <trkpt lat="59.353033365622" lon="18.011573303699">
        <ele>87.6</ele>
        <time>2019-09-02T16:53:38Z</time>
      </trkpt>
      <trkpt lat="59.353149706394" lon="18.01151873753">
        <ele>87.8</ele>
        <time>2019-09-02T16:53:40Z</time>
      </trkpt>
      <trkpt lat="59.353270154297" lon="18.011415388703">
        <ele>87.8</ele>
        <time>2019-09-02T16:53:42Z</time>
      </trkpt>
      <trkpt lat="59.353340813714" lon="18.01124884035">
        <ele>87.8</ele>
        <time>2019-09-02T16:53:44Z</time>
      </trkpt>
      <trkpt lat="59.353408707104" lon="18.011086650585">
        <ele>87.6</ele>
        <time>2019-09-02T16:53:47Z</time>
      </trkpt>
      <trkpt lat="59.35353728545" lon="18.011255629689">
        <ele>87.4</ele>
        <time>2019-09-02T16:53:52Z</time>
      </trkpt>
      <trkpt lat="59.353716825748" lon="18.0116218349">
        <ele>86.8</ele>
        <time>2019-09-02T16:53:57Z</time>
      </trkpt>
      <trkpt lat="59.353711880427" lon="18.011787125968">
        <ele>86.6</ele>
        <time>2019-09-02T16:53:59Z</time>
      </trkpt>
      <trkpt lat="59.353651949842" lon="18.011903299102">
        <ele>86</ele>
        <time>2019-09-02T16:54:01Z</time>
      </trkpt>
      <trkpt lat="59.353613057826" lon="18.01211804338">
        <ele>85.6</ele>
        <time>2019-09-02T16:54:04Z</time>
      </trkpt>
      <trkpt lat="59.353652536575" lon="18.012313676926">
        <ele>84.6</ele>
        <time>2019-09-02T16:54:06Z</time>
      </trkpt>
      <trkpt lat="59.35375437666" lon="18.012581646269">
        <ele>83.6</ele>
        <time>2019-09-02T16:54:09Z</time>
      </trkpt>
      <trkpt lat="59.353834675262" lon="18.012699914878">
        <ele>83</ele>
        <time>2019-09-02T16:54:11Z</time>
      </trkpt>
      <trkpt lat="59.353948333826" lon="18.012721707818">
        <ele>82.4</ele>
        <time>2019-09-02T16:54:13Z</time>
      </trkpt>
      <trkpt lat="59.354172465832" lon="18.012756241246">
        <ele>82</ele>
        <time>2019-09-02T16:54:17Z</time>
      </trkpt>
      <trkpt lat="59.354281430532" lon="18.012925974721">
        <ele>81.6</ele>
        <time>2019-09-02T16:54:20Z</time>
      </trkpt>
      <trkpt lat="59.354344797696" lon="18.012963357995">
        <ele>81</ele>
        <time>2019-09-02T16:54:21Z</time>
      </trkpt>
      <trkpt lat="59.354435741311" lon="18.012971907533">
        <ele>80</ele>
        <time>2019-09-02T16:54:22Z</time>
      </trkpt>
      <trkpt lat="59.354518973578" lon="18.012936619734">
        <ele>79.2</ele>
        <time>2019-09-02T16:54:23Z</time>
      </trkpt>
      <trkpt lat="59.35459843399" lon="18.012876437692">
        <ele>78.2</ele>
        <time>2019-09-02T16:54:24Z</time>
      </trkpt>
      <trkpt lat="59.35467554747" lon="18.012813238166">
        <ele>77.8</ele>
        <time>2019-09-02T16:54:25Z</time>
      </trkpt>
      <trkpt lat="59.354978804612" lon="18.012597990974">
        <ele>77.4</ele>
        <time>2019-09-02T16:54:29Z</time>
      </trkpt>
      <trkpt lat="59.355119452894" lon="18.012534456172">
        <ele>77.2</ele>
        <time>2019-09-02T16:54:31Z</time>
      </trkpt>
      <trkpt lat="59.355232440906" lon="18.012392885881">
        <ele>77.2</ele>
        <time>2019-09-02T16:54:33Z</time>
      </trkpt>
      <trkpt lat="59.355425392244" lon="18.011912267735">
        <ele>77.4</ele>
        <time>2019-09-02T16:54:38Z</time>
      </trkpt>
      <trkpt lat="59.355499572059" lon="18.011784192303">
        <ele>76.6</ele>
        <time>2019-09-02T16:54:40Z</time>
      </trkpt>
      <trkpt lat="59.355575092978" lon="18.011626528764">
        <ele>75.6</ele>
        <time>2019-09-02T16:54:43Z</time>
      </trkpt>
      <trkpt lat="59.35559252733" lon="18.01159585101">
        <ele>75.4</ele>
        <time>2019-09-02T16:54:44Z</time>
      </trkpt>
      <trkpt lat="59.355440228207" lon="18.01213899813">
        <ele>74.4</ele>
        <time>2019-09-02T16:54:53Z</time>
      </trkpt>
      <trkpt lat="59.355254904398" lon="18.013019349087">
        <ele>73.4</ele>
        <time>2019-09-02T16:55:02Z</time>
      </trkpt>
      <trkpt lat="59.355159937471" lon="18.01340969417">
        <ele>73</ele>
        <time>2019-09-02T16:55:07Z</time>
      </trkpt>
      <trkpt lat="59.35512649369" lon="18.013624186991">
        <ele>73</ele>
        <time>2019-09-02T16:55:09Z</time>
      </trkpt>
      <trkpt lat="59.354825332023" lon="18.014634876493">
        <ele>74.6</ele>
        <time>2019-09-02T16:55:16Z</time>
      </trkpt>
      <trkpt lat="59.354742267394" lon="18.014907791157">
        <ele>76</ele>
        <time>2019-09-02T16:55:18Z</time>
      </trkpt>
      <trkpt lat="59.354628525011" lon="18.015228398832">
        <ele>76.4</ele>
        <time>2019-09-02T16:55:23Z</time>
      </trkpt>
      <trkpt lat="59.354778058107" lon="18.015473066493">
        <ele>77</ele>
        <time>2019-09-02T16:55:30Z</time>
      </trkpt>
      <trkpt lat="59.354857769976" lon="18.015665850193">
        <ele>77.8</ele>
        <time>2019-09-02T16:55:33Z</time>
      </trkpt>
      <trkpt lat="59.354990958367" lon="18.015843881749">
        <ele>77.6</ele>
        <time>2019-09-02T16:55:37Z</time>
      </trkpt>
      <trkpt lat="59.355068742399" lon="18.01587397277">
        <ele>77.6</ele>
        <time>2019-09-02T16:55:39Z</time>
      </trkpt>
      <trkpt lat="59.355186759551" lon="18.016093997645">
        <ele>78.2</ele>
        <time>2019-09-02T16:55:43Z</time>
      </trkpt>
      <trkpt lat="59.355289437826" lon="18.016353165993">
        <ele>77.8</ele>
        <time>2019-09-02T16:55:48Z</time>
      </trkpt>
      <trkpt lat="59.355813641852" lon="18.016617950214">
        <ele>77.6</ele>
        <time>2019-09-02T16:56:01Z</time>
      </trkpt>
      <trkpt lat="59.356396770635" lon="18.016780391436">
        <ele>78.6</ele>
        <time>2019-09-02T16:56:09Z</time>
      </trkpt>
      <trkpt lat="59.356993059001" lon="18.016931349455">
        <ele>78</ele>
        <time>2019-09-02T16:56:16Z</time>
      </trkpt>
      <trkpt lat="59.357543079279" lon="18.017117092359">
        <ele>77.6</ele>
        <time>2019-09-02T16:56:23Z</time>
      </trkpt>
      <trkpt lat="59.357998803182" lon="18.017224715955">
        <ele>77</ele>
        <time>2019-09-02T16:56:29Z</time>
      </trkpt>
      <trkpt lat="59.358536837343" lon="18.01736511278">
        <ele>78.2</ele>
        <time>2019-09-02T16:56:37Z</time>
      </trkpt>
      <trkpt lat="59.358707576646" lon="18.017405932633">
        <ele>79.4</ele>
        <time>2019-09-02T16:56:40Z</time>
      </trkpt>
      <trkpt lat="59.359159528694" lon="18.017482543199">
        <ele>80.6</ele>
        <time>2019-09-02T16:56:47Z</time>
      </trkpt>
      <trkpt lat="59.359620365556" lon="18.017538031377">
        <ele>81.8</ele>
        <time>2019-09-02T16:56:53Z</time>
      </trkpt>
      <trkpt lat="59.359936363186" lon="18.017520429387">
        <ele>83</ele>
        <time>2019-09-02T16:56:58Z</time>
      </trkpt>
      <trkpt lat="59.360132415827" lon="18.017507102166">
        <ele>83.6</ele>
        <time>2019-09-02T16:57:02Z</time>
      </trkpt>
      <trkpt lat="59.360408264156" lon="18.017409453031">
        <ele>83.8</ele>
        <time>2019-09-02T16:57:09Z</time>
      </trkpt>
      <trkpt lat="59.360524856385" lon="18.017354635405">
        <ele>84.2</ele>
        <time>2019-09-02T16:57:12Z</time>
      </trkpt>
      <trkpt lat="59.360684447761" lon="18.017357401432">
        <ele>85.4</ele>
        <time>2019-09-02T16:57:15Z</time>
      </trkpt>
      <trkpt lat="59.360905478464" lon="18.017349773903">
        <ele>86.6</ele>
        <time>2019-09-02T16:57:19Z</time>
      </trkpt>
      <trkpt lat="59.36110949391" lon="18.017302583806">
        <ele>87.8</ele>
        <time>2019-09-02T16:57:23Z</time>
      </trkpt>
      <trkpt lat="59.361294817719" lon="18.017249861655">
        <ele>89</ele>
        <time>2019-09-02T16:57:27Z</time>
      </trkpt>
      <trkpt lat="59.361392383035" lon="18.017166126474">
        <ele>90.2</ele>
        <time>2019-09-02T16:57:30Z</time>
      </trkpt>
      <trkpt lat="59.361547783461" lon="18.017086330786">
        <ele>91.6</ele>
        <time>2019-09-02T16:57:34Z</time>
      </trkpt>
      <trkpt lat="59.361710308502" lon="18.017019024129">
        <ele>92.8</ele>
        <time>2019-09-02T16:57:38Z</time>
      </trkpt>
      <trkpt lat="59.361804521058" lon="18.016984658339">
        <ele>93</ele>
        <time>2019-09-02T16:57:40Z</time>
      </trkpt>
      <trkpt lat="59.361919353088" lon="18.016927409962">
        <ele>93</ele>
        <time>2019-09-02T16:57:42Z</time>
      </trkpt>
      <trkpt lat="59.362218922194" lon="18.016632283263">
        <ele>91.6</ele>
        <time>2019-09-02T16:57:47Z</time>
      </trkpt>
      <trkpt lat="59.36234498597" lon="18.016483672176">
        <ele>91</ele>
        <time>2019-09-02T16:57:49Z</time>
      </trkpt>
      <trkpt lat="59.362485298976" lon="18.016389543439">
        <ele>90.6</ele>
        <time>2019-09-02T16:57:51Z</time>
      </trkpt>
      <trkpt lat="59.362625863439" lon="18.016284015318">
        <ele>90.2</ele>
        <time>2019-09-02T16:57:53Z</time>
      </trkpt>
      <trkpt lat="59.363085275378" lon="18.016035408164">
        <ele>89.6</ele>
        <time>2019-09-02T16:58:00Z</time>
      </trkpt>
      <trkpt lat="59.363177643916" lon="18.015961312168">
        <ele>89.2</ele>
        <time>2019-09-02T16:58:02Z</time>
      </trkpt>
      <trkpt lat="59.363238077415" lon="18.01594270435">
        <ele>89</ele>
        <time>2019-09-02T16:58:04Z</time>
      </trkpt>
      <trkpt lat="59.363441087033" lon="18.016238669239">
        <ele>88.6</ele>
        <time>2019-09-02T16:58:11Z</time>
      </trkpt>
      <trkpt lat="59.3635075555" lon="18.016352746898">
        <ele>88.4</ele>
        <time>2019-09-02T16:58:13Z</time>
      </trkpt>
      <trkpt lat="59.363604617902" lon="18.016620129508">
        <ele>87</ele>
        <time>2019-09-02T16:58:17Z</time>
      </trkpt>
      <trkpt lat="59.363666643962" lon="18.016744433085">
        <ele>86</ele>
        <time>2019-09-02T16:58:20Z</time>
      </trkpt>
      <trkpt lat="59.363715929534" lon="18.016768405319">
        <ele>85.8</ele>
        <time>2019-09-02T16:58:21Z</time>
      </trkpt>
      <trkpt lat="59.363818691628" lon="18.016783325101">
        <ele>85.4</ele>
        <time>2019-09-02T16:58:23Z</time>
      </trkpt>
      <trkpt lat="59.363961770661" lon="18.016671678193">
        <ele>85.4</ele>
        <time>2019-09-02T16:58:25Z</time>
      </trkpt>
      <trkpt lat="59.364052295181" lon="18.016545446779">
        <ele>85.4</ele>
        <time>2019-09-02T16:58:27Z</time>
      </trkpt>
      <trkpt lat="59.364124211883" lon="18.016351489613">
        <ele>84.8</ele>
        <time>2019-09-02T16:58:29Z</time>
      </trkpt>
      <trkpt lat="59.364282126879" lon="18.015701473268">
        <ele>84</ele>
        <time>2019-09-02T16:58:34Z</time>
      </trkpt>
      <trkpt lat="59.364324036379" lon="18.015491506673">
        <ele>83.8</ele>
        <time>2019-09-02T16:58:36Z</time>
      </trkpt>
      <trkpt lat="59.364314061918" lon="18.015316324963">
        <ele>83.8</ele>
        <time>2019-09-02T16:58:37Z</time>
      </trkpt>
      <trkpt lat="59.364300231783" lon="18.015122535435">
        <ele>83.2</ele>
        <time>2019-09-02T16:58:39Z</time>
      </trkpt>
      <trkpt lat="59.364293358625" lon="18.014983898809">
        <ele>82.2</ele>
        <time>2019-09-02T16:58:41Z</time>
      </trkpt>
      <trkpt lat="59.364326299492" lon="18.014846854744">
        <ele>81.2</ele>
        <time>2019-09-02T16:58:43Z</time>
      </trkpt>
      <trkpt lat="59.364358653626" lon="18.014821122311">
        <ele>81</ele>
        <time>2019-09-02T16:58:44Z</time>
      </trkpt>
      <trkpt lat="59.364397210366" lon="18.014809806746">
        <ele>80.8</ele>
        <time>2019-09-02T16:58:45Z</time>
      </trkpt>
      <trkpt lat="59.364651349574" lon="18.014923381491">
        <ele>79.8</ele>
        <time>2019-09-02T16:58:51Z</time>
      </trkpt>
      <trkpt lat="59.364727876321" lon="18.015014744201">
        <ele>79.2</ele>
        <time>2019-09-02T16:58:53Z</time>
      </trkpt>
      <trkpt lat="59.365168680442" lon="18.014947689001">
        <ele>79</ele>
        <time>2019-09-02T16:58:58Z</time>
      </trkpt>
      <trkpt lat="59.365867563264" lon="18.013979328094">
        <ele>78.8</ele>
        <time>2019-09-02T16:59:11Z</time>
      </trkpt>
      <trkpt lat="59.365985328959" lon="18.013830130274">
        <ele>79.8</ele>
        <time>2019-09-02T16:59:13Z</time>
      </trkpt>
      <trkpt lat="59.366095970039" lon="18.013691745105">
        <ele>81.6</ele>
        <time>2019-09-02T16:59:15Z</time>
      </trkpt>
      <trkpt lat="59.366579689488" lon="18.012978948329">
        <ele>80.8</ele>
        <time>2019-09-02T16:59:24Z</time>
      </trkpt>
      <trkpt lat="59.36663735696" lon="18.012889848732">
        <ele>80.6</ele>
        <time>2019-09-02T16:59:25Z</time>
      </trkpt>
      <trkpt lat="59.366911696547" lon="18.012576449491">
        <ele>79.2</ele>
        <time>2019-09-02T16:59:29Z</time>
      </trkpt>
      <trkpt lat="59.36738250787" lon="18.011922912748">
        <ele>79</ele>
        <time>2019-09-02T16:59:37Z</time>
      </trkpt>
      <trkpt lat="59.367505218886" lon="18.011748569228">
        <ele>77.8</ele>
        <time>2019-09-02T16:59:39Z</time>
      </trkpt>
      <trkpt lat="59.367628851911" lon="18.011570872948">
        <ele>76</ele>
        <time>2019-09-02T16:59:41Z</time>
      </trkpt>
      <trkpt lat="59.367728428883" lon="18.01142569844">
        <ele>74.4</ele>
        <time>2019-09-02T16:59:43Z</time>
      </trkpt>
      <trkpt lat="59.367898413815" lon="18.011216067121">
        <ele>73.2</ele>
        <time>2019-09-02T16:59:47Z</time>
      </trkpt>
      <trkpt lat="59.367932695786" lon="18.011120262004">
        <ele>72</ele>
        <time>2019-09-02T16:59:49Z</time>
      </trkpt>
      <trkpt lat="59.367927918103" lon="18.011090506259">
        <ele>71.8</ele>
        <time>2019-09-02T16:59:50Z</time>
      </trkpt>
      <trkpt lat="59.367905622249" lon="18.011183210073">
        <ele>71.4</ele>
        <time>2019-09-02T16:59:52Z</time>
      </trkpt>
      <trkpt lat="59.368161521656" lon="18.010925718105">
        <ele>73</ele>
        <time>2019-09-02T16:59:58Z</time>
      </trkpt>
      <trkpt lat="59.368270821632" lon="18.010653557812">
        <ele>74.6</ele>
        <time>2019-09-02T17:00:01Z</time>
      </trkpt>
      <trkpt lat="59.368651611349" lon="18.009859372787">
        <ele>74</ele>
        <time>2019-09-02T17:00:14Z</time>
      </trkpt>
      <trkpt lat="59.368735849444" lon="18.009634654048">
        <ele>73.2</ele>
        <time>2019-09-02T17:00:17Z</time>
      </trkpt>
      <trkpt lat="59.368868451102" lon="18.009348998896">
        <ele>72.8</ele>
        <time>2019-09-02T17:00:21Z</time>
      </trkpt>
      <trkpt lat="59.369112615849" lon="18.009033587999">
        <ele>73.2</ele>
        <time>2019-09-02T17:00:26Z</time>
      </trkpt>
      <trkpt lat="59.369335155294" lon="18.008909954974">
        <ele>72</ele>
        <time>2019-09-02T17:00:30Z</time>
      </trkpt>
      <trkpt lat="59.36987444674" lon="18.008662605105">
        <ele>71.8</ele>
        <time>2019-09-02T17:00:38Z</time>
      </trkpt>
      <trkpt lat="59.370373505066" lon="18.008407208612">
        <ele>72</ele>
        <time>2019-09-02T17:00:45Z</time>
      </trkpt>
      <trkpt lat="59.370584728946" lon="18.008195900913">
        <ele>71.2</ele>
        <time>2019-09-02T17:00:48Z</time>
      </trkpt>
      <trkpt lat="59.370663686444" lon="18.008151141567">
        <ele>70.6</ele>
        <time>2019-09-02T17:00:49Z</time>
      </trkpt>
      <trkpt lat="59.371268189072" lon="18.008021892669">
        <ele>70.8</ele>
        <time>2019-09-02T17:00:56Z</time>
      </trkpt>
      <trkpt lat="59.371726511364" lon="18.007788205297">
        <ele>69.2</ele>
        <time>2019-09-02T17:01:01Z</time>
      </trkpt>
      <trkpt lat="59.3721744401" lon="18.00758595005">
        <ele>68.4</ele>
        <time>2019-09-02T17:01:07Z</time>
      </trkpt>
      <trkpt lat="59.372338390064" lon="18.00757086263">
        <ele>68.6</ele>
        <time>2019-09-02T17:01:09Z</time>
      </trkpt>
      <trkpt lat="59.372492365567" lon="18.007499113566">
        <ele>68.8</ele>
        <time>2019-09-02T17:01:11Z</time>
      </trkpt>
      <trkpt lat="59.373047247347" lon="18.007077001082">
        <ele>69.4</ele>
        <time>2019-09-02T17:01:18Z</time>
      </trkpt>
      <trkpt lat="59.37313081489" lon="18.006964599803">
        <ele>69.2</ele>
        <time>2019-09-02T17:01:19Z</time>
      </trkpt>
      <trkpt lat="59.373453098945" lon="18.006515162325">
        <ele>68</ele>
        <time>2019-09-02T17:01:23Z</time>
      </trkpt>
      <trkpt lat="59.374013931874" lon="18.006057510585">
        <ele>67.8</ele>
        <time>2019-09-02T17:01:30Z</time>
      </trkpt>
      <trkpt lat="59.374534364045" lon="18.005651156073">
        <ele>69.2</ele>
        <time>2019-09-02T17:01:37Z</time>
      </trkpt>
      <trkpt lat="59.37506284284" lon="18.005195851265">
        <ele>69.8</ele>
        <time>2019-09-02T17:01:45Z</time>
      </trkpt>
      <trkpt lat="59.37552887648" lon="18.004810535322">
        <ele>70.4</ele>
        <time>2019-09-02T17:01:53Z</time>
      </trkpt>
      <trkpt lat="59.375811597967" lon="18.004646836815">
        <ele>71.6</ele>
        <time>2019-09-02T17:01:58Z</time>
      </trkpt>
      <trkpt lat="59.376326162808" lon="18.004350452831">
        <ele>73</ele>
        <time>2019-09-02T17:02:07Z</time>
      </trkpt>
      <trkpt lat="59.376496231559" lon="18.004266969107">
        <ele>74</ele>
        <time>2019-09-02T17:02:10Z</time>
      </trkpt>
      <trkpt lat="59.376928402323" lon="18.004097151813">
        <ele>75</ele>
        <time>2019-09-02T17:02:18Z</time>
      </trkpt>
      <trkpt lat="59.376968300167" lon="18.004075442692">
        <ele>75.4</ele>
        <time>2019-09-02T17:02:19Z</time>
      </trkpt>
      <trkpt lat="59.377052202986" lon="18.00391635423">
        <ele>75.8</ele>
        <time>2019-09-02T17:02:21Z</time>
      </trkpt>
      <trkpt lat="59.377148930112" lon="18.003766569677">
        <ele>76.2</ele>
        <time>2019-09-02T17:02:23Z</time>
      </trkpt>
      <trkpt lat="59.377400303293" lon="18.003499103248">
        <ele>77.4</ele>
        <time>2019-09-02T17:02:28Z</time>
      </trkpt>
      <trkpt lat="59.377451516702" lon="18.003471442978">
        <ele>77.8</ele>
        <time>2019-09-02T17:02:29Z</time>
      </trkpt>
      <trkpt lat="59.377533743141" lon="18.003476220661">
        <ele>78.6</ele>
        <time>2019-09-02T17:02:31Z</time>
      </trkpt>
      <trkpt lat="59.377765754133" lon="18.003398604267">
        <ele>79.4</ele>
        <time>2019-09-02T17:02:38Z</time>
      </trkpt>
      <trkpt lat="59.377930793744" lon="18.003158462832">
        <ele>79.6</ele>
        <time>2019-09-02T17:02:42Z</time>
      </trkpt>
      <trkpt lat="59.378240588768" lon="18.002894768258">
        <ele>80.8</ele>
        <time>2019-09-02T17:02:48Z</time>
      </trkpt>
      <trkpt lat="59.378736881067" lon="18.002477433457">
        <ele>80</ele>
        <time>2019-09-02T17:02:56Z</time>
      </trkpt>
      <trkpt lat="59.378807289027" lon="18.00242772879">
        <ele>79.6</ele>
        <time>2019-09-02T17:02:57Z</time>
      </trkpt>
      <trkpt lat="59.379260246903" lon="18.002096392283">
        <ele>78.4</ele>
        <time>2019-09-02T17:03:03Z</time>
      </trkpt>
      <trkpt lat="59.379822420936" lon="18.001678470749">
        <ele>77.4</ele>
        <time>2019-09-02T17:03:10Z</time>
      </trkpt>
      <trkpt lat="59.380209161802" lon="18.001491805836">
        <ele>76.6</ele>
        <time>2019-09-02T17:03:15Z</time>
      </trkpt>
      <trkpt lat="59.380380906933" lon="18.001511084206">
        <ele>76</ele>
        <time>2019-09-02T17:03:17Z</time>
      </trkpt>
      <trkpt lat="59.380714171277" lon="18.001620048906">
        <ele>75</ele>
        <time>2019-09-02T17:03:21Z</time>
      </trkpt>
      <trkpt lat="59.38094945121" lon="18.001690289228">
        <ele>74.4</ele>
        <time>2019-09-02T17:03:24Z</time>
      </trkpt>
      <trkpt lat="59.381111557156" lon="18.001650307565">
        <ele>74.2</ele>
        <time>2019-09-02T17:03:26Z</time>
      </trkpt>
      <trkpt lat="59.381356727731" lon="18.001545198539">
        <ele>73.8</ele>
        <time>2019-09-02T17:03:29Z</time>
      </trkpt>
      <trkpt lat="59.381781606242" lon="18.000813710126">
        <ele>73.6</ele>
        <time>2019-09-02T17:03:35Z</time>
      </trkpt>
      <trkpt lat="59.382236659593" lon="18.00022328909">
        <ele>73.6</ele>
        <time>2019-09-02T17:03:42Z</time>
      </trkpt>
      <trkpt lat="59.382673524221" lon="17.99971031681">
        <ele>73.4</ele>
        <time>2019-09-02T17:03:49Z</time>
      </trkpt>
      <trkpt lat="59.382773939383" lon="17.999519544766">
        <ele>73</ele>
        <time>2019-09-02T17:03:51Z</time>
      </trkpt>
      <trkpt lat="59.382944594867" lon="17.998939098191">
        <ele>73.6</ele>
        <time>2019-09-02T17:03:56Z</time>
      </trkpt>
      <trkpt lat="59.383056577051" lon="17.998773890942">
        <ele>74.4</ele>
        <time>2019-09-02T17:03:58Z</time>
      </trkpt>
      <trkpt lat="59.383568040589" lon="17.998194282557">
        <ele>73.6</ele>
        <time>2019-09-02T17:04:07Z</time>
      </trkpt>
      <trkpt lat="59.383667785199" lon="17.99808674278">
        <ele>74.4</ele>
        <time>2019-09-02T17:04:09Z</time>
      </trkpt>
      <trkpt lat="59.383767026895" lon="17.998040977606">
        <ele>74.4</ele>
        <time>2019-09-02T17:04:11Z</time>
      </trkpt>
      <trkpt lat="59.384348814574" lon="17.998000744486">
        <ele>74.6</ele>
        <time>2019-09-02T17:04:22Z</time>
      </trkpt>
      <trkpt lat="59.384917358851" lon="17.997942993195">
        <ele>74.8</ele>
        <time>2019-09-02T17:04:31Z</time>
      </trkpt>
      <trkpt lat="59.385514653045" lon="17.997918601866">
        <ele>75.2</ele>
        <time>2019-09-02T17:04:40Z</time>
      </trkpt>
      <trkpt lat="59.385822184956" lon="17.997892617976">
        <ele>76</ele>
        <time>2019-09-02T17:04:45Z</time>
      </trkpt>
      <trkpt lat="59.386360219117" lon="17.997839895825">
        <ele>77.2</ele>
        <time>2019-09-02T17:04:54Z</time>
      </trkpt>
      <trkpt lat="59.386474212957" lon="17.997825478957">
        <ele>78.2</ele>
        <time>2019-09-02T17:04:56Z</time>
      </trkpt>
      <trkpt lat="59.386587200969" lon="17.997818773437">
        <ele>79.4</ele>
        <time>2019-09-02T17:04:58Z</time>
      </trkpt>
      <trkpt lat="59.386800604143" lon="17.997808798976">
        <ele>80.6</ele>
        <time>2019-09-02T17:05:02Z</time>
      </trkpt>
      <trkpt lat="59.387191284502" lon="17.997783401819">
        <ele>81.6</ele>
        <time>2019-09-02T17:05:10Z</time>
      </trkpt>
      <trkpt lat="59.387281389927" lon="17.997824221672">
        <ele>82.4</ele>
        <time>2019-09-02T17:05:12Z</time>
      </trkpt>
      <trkpt lat="59.387353306629" lon="17.997902927713">
        <ele>83</ele>
        <time>2019-09-02T17:05:14Z</time>
      </trkpt>
      <trkpt lat="59.387424385141" lon="17.998241137378">
        <ele>84</ele>
        <time>2019-09-02T17:05:19Z</time>
      </trkpt>
      <trkpt lat="59.387434946335" lon="17.99842956249">
        <ele>83.8</ele>
        <time>2019-09-02T17:05:21Z</time>
      </trkpt>
      <trkpt lat="59.387450704307" lon="17.998636763058">
        <ele>83.6</ele>
        <time>2019-09-02T17:05:23Z</time>
      </trkpt>
      <trkpt lat="59.387490015418" lon="17.998867768222">
        <ele>82.6</ele>
        <time>2019-09-02T17:05:25Z</time>
      </trkpt>
      <trkpt lat="59.387561513025" lon="17.999034065118">
        <ele>81.8</ele>
        <time>2019-09-02T17:05:27Z</time>
      </trkpt>
      <trkpt lat="59.387668466069" lon="17.999156440858">
        <ele>81.6</ele>
        <time>2019-09-02T17:05:29Z</time>
      </trkpt>
      <trkpt lat="59.387782292271" lon="17.99918728625">
        <ele>81.8</ele>
        <time>2019-09-02T17:05:31Z</time>
      </trkpt>
      <trkpt lat="59.388102899946" lon="17.998898445976">
        <ele>83.8</ele>
        <time>2019-09-02T17:05:37Z</time>
      </trkpt>
      <trkpt lat="59.388280009493" lon="17.998647408071">
        <ele>84.8</ele>
        <time>2019-09-02T17:05:41Z</time>
      </trkpt>
      <trkpt lat="59.388469272795" lon="17.998392598311">
        <ele>85.2</ele>
        <time>2019-09-02T17:05:45Z</time>
      </trkpt>
      <trkpt lat="59.388743193287" lon="17.998076097767">
        <ele>83.2</ele>
        <time>2019-09-02T17:05:49Z</time>
      </trkpt>
      <trkpt lat="59.388901695016" lon="17.997884655171">
        <ele>81.4</ele>
        <time>2019-09-02T17:05:51Z</time>
      </trkpt>
      <trkpt lat="59.389059442374" lon="17.997661528993">
        <ele>80.2</ele>
        <time>2019-09-02T17:05:53Z</time>
      </trkpt>
      <trkpt lat="59.389276785041" lon="17.997344525535">
        <ele>79</ele>
        <time>2019-09-02T17:05:56Z</time>
      </trkpt>
      <trkpt lat="59.389484153247" lon="17.997016290331">
        <ele>77.8</ele>
        <time>2019-09-02T17:05:59Z</time>
      </trkpt>
      <trkpt lat="59.389632345239" lon="17.996812442523">
        <ele>75.8</ele>
        <time>2019-09-02T17:06:01Z</time>
      </trkpt>
      <trkpt lat="59.389802581628" lon="17.996611947475">
        <ele>74.4</ele>
        <time>2019-09-02T17:06:03Z</time>
      </trkpt>
      <trkpt lat="59.389889082836" lon="17.996481106016">
        <ele>73.4</ele>
        <time>2019-09-02T17:06:04Z</time>
      </trkpt>
      <trkpt lat="59.389971393094" lon="17.996337607888">
        <ele>72.4</ele>
        <time>2019-09-02T17:06:05Z</time>
      </trkpt>
      <trkpt lat="59.390037442466" lon="17.996190002629">
        <ele>71.8</ele>
        <time>2019-09-02T17:06:06Z</time>
      </trkpt>
      <trkpt lat="59.390337682124" lon="17.995342592539">
        <ele>73.4</ele>
        <time>2019-09-02T17:06:12Z</time>
      </trkpt>
      <trkpt lat="59.390659379446" lon="17.994321509481">
        <ele>73</ele>
        <time>2019-09-02T17:06:20Z</time>
      </trkpt>
      <trkpt lat="59.39096749809" lon="17.993370415288">
        <ele>73</ele>
        <time>2019-09-02T17:06:28Z</time>
      </trkpt>
      <trkpt lat="59.39126505554" lon="17.992451423772">
        <ele>73.6</ele>
        <time>2019-09-02T17:06:36Z</time>
      </trkpt>
      <trkpt lat="59.391575018202" lon="17.991462359572">
        <ele>74.6</ele>
        <time>2019-09-02T17:06:45Z</time>
      </trkpt>
      <trkpt lat="59.391730837723" lon="17.990984339815">
        <ele>75.6</ele>
        <time>2019-09-02T17:06:50Z</time>
      </trkpt>
      <trkpt lat="59.391759252364" lon="17.990884427567">
        <ele>75.8</ele>
        <time>2019-09-02T17:06:51Z</time>
      </trkpt>
      <trkpt lat="59.391930326943" lon="17.990280511672">
        <ele>76.6</ele>
        <time>2019-09-02T17:06:57Z</time>
      </trkpt>
      <trkpt lat="59.391958071032" lon="17.990172049886">
        <ele>76.8</ele>
        <time>2019-09-02T17:06:58Z</time>
      </trkpt>
      <trkpt lat="59.392155045682" lon="17.9892086343">
        <ele>78</ele>
        <time>2019-09-02T17:07:07Z</time>
      </trkpt>
      <trkpt lat="59.392205337082" lon="17.98900160137">
        <ele>79.4</ele>
        <time>2019-09-02T17:07:09Z</time>
      </trkpt>
      <trkpt lat="59.392315978162" lon="17.988614609047">
        <ele>80</ele>
        <time>2019-09-02T17:07:13Z</time>
      </trkpt>
      <trkpt lat="59.392714453688" lon="17.987833583605">
        <ele>80</ele>
        <time>2019-09-02T17:07:23Z</time>
      </trkpt>
      <trkpt lat="59.392874883254" lon="17.987659072447">
        <ele>80.6</ele>
        <time>2019-09-02T17:07:26Z</time>
      </trkpt>
      <trkpt lat="59.393098931441" lon="17.987487327316">
        <ele>81.6</ele>
        <time>2019-09-02T17:07:30Z</time>
      </trkpt>
      <trkpt lat="59.393561360864" lon="17.9872388878">
        <ele>82.8</ele>
        <time>2019-09-02T17:07:38Z</time>
      </trkpt>
      <trkpt lat="59.393995124189" lon="17.986974355036">
        <ele>83.6</ele>
        <time>2019-09-02T17:07:46Z</time>
      </trkpt>
      <trkpt lat="59.394093192419" lon="17.986922638713">
        <ele>83.8</ele>
        <time>2019-09-02T17:07:48Z</time>
      </trkpt>
      <trkpt lat="59.394614630418" lon="17.986627092919">
        <ele>83.6</ele>
        <time>2019-09-02T17:07:56Z</time>
      </trkpt>
      <trkpt lat="59.394866841789" lon="17.986438667807">
        <ele>83.8</ele>
        <time>2019-09-02T17:08:01Z</time>
      </trkpt>
      <trkpt lat="59.395342346976" lon="17.986132477">
        <ele>85</ele>
        <time>2019-09-02T17:08:10Z</time>
      </trkpt>
      <trkpt lat="59.395861438043" lon="17.985754034215">
        <ele>85</ele>
        <time>2019-09-02T17:08:20Z</time>
      </trkpt>
      <trkpt lat="59.396407435009" lon="17.985254305337">
        <ele>85</ele>
        <time>2019-09-02T17:08:29Z</time>
      </trkpt>
      <trkpt lat="59.396893585209" lon="17.984775698847">
        <ele>84.6</ele>
        <time>2019-09-02T17:08:37Z</time>
      </trkpt>
      <trkpt lat="59.3974207229" lon="17.984210674968">
        <ele>85.2</ele>
        <time>2019-09-02T17:08:46Z</time>
      </trkpt>
      <trkpt lat="59.397913830077" lon="17.983702731828">
        <ele>85.6</ele>
        <time>2019-09-02T17:08:55Z</time>
      </trkpt>
      <trkpt lat="59.398103344836" lon="17.983436941779">
        <ele>86.2</ele>
        <time>2019-09-02T17:08:59Z</time>
      </trkpt>
      <trkpt lat="59.398332422163" lon="17.983093619155">
        <ele>87.2</ele>
        <time>2019-09-02T17:09:04Z</time>
      </trkpt>
      <trkpt lat="59.398803568762" lon="17.982554662985">
        <ele>88.4</ele>
        <time>2019-09-02T17:09:13Z</time>
      </trkpt>
      <trkpt lat="59.399057037418" lon="17.9822013659">
        <ele>88.6</ele>
        <time>2019-09-02T17:09:18Z</time>
      </trkpt>
      <trkpt lat="59.399464984491" lon="17.981363762633">
        <ele>88.8</ele>
        <time>2019-09-02T17:09:27Z</time>
      </trkpt>
      <trkpt lat="59.399557017753" lon="17.981179109376">
        <ele>89</ele>
        <time>2019-09-02T17:09:29Z</time>
      </trkpt>
      <trkpt lat="59.399634131233" lon="17.980985655124">
        <ele>89.4</ele>
        <time>2019-09-02T17:09:31Z</time>
      </trkpt>
      <trkpt lat="59.39979531517" lon="17.980574020015">
        <ele>90.6</ele>
        <time>2019-09-02T17:09:35Z</time>
      </trkpt>
      <trkpt lat="59.400154311947" lon="17.979814619875">
        <ele>91.8</ele>
        <time>2019-09-02T17:09:43Z</time>
      </trkpt>
      <trkpt lat="59.400555972595" lon="17.978978776807">
        <ele>91.8</ele>
        <time>2019-09-02T17:09:52Z</time>
      </trkpt>
      <trkpt lat="59.400935840303" lon="17.978123655369">
        <ele>92</ele>
        <time>2019-09-02T17:10:01Z</time>
      </trkpt>
      <trkpt lat="59.401321323884" lon="17.977255122891">
        <ele>92.4</ele>
        <time>2019-09-02T17:10:10Z</time>
      </trkpt>
      <trkpt lat="59.401722649256" lon="17.976471918155">
        <ele>92.2</ele>
        <time>2019-09-02T17:10:19Z</time>
      </trkpt>
      <trkpt lat="59.402103019878" lon="17.975695167482">
        <ele>92.6</ele>
        <time>2019-09-02T17:10:28Z</time>
      </trkpt>
      <trkpt lat="59.402144091188" lon="17.975613695414">
        <ele>92.8</ele>
        <time>2019-09-02T17:10:29Z</time>
      </trkpt>
      <trkpt lat="59.40238029313" lon="17.975138525503">
        <ele>93.8</ele>
        <time>2019-09-02T17:10:35Z</time>
      </trkpt>
      <trkpt lat="59.402694530561" lon="17.974440397052">
        <ele>95</ele>
        <time>2019-09-02T17:10:43Z</time>
      </trkpt>
      <trkpt lat="59.402899551835" lon="17.974050722521">
        <ele>95.6</ele>
        <time>2019-09-02T17:10:48Z</time>
      </trkpt>
      <trkpt lat="59.402977419686" lon="17.973982242398">
        <ele>95</ele>
        <time>2019-09-02T17:10:50Z</time>
      </trkpt>
      <trkpt lat="59.403099543969" lon="17.974020966776">
        <ele>93.8</ele>
        <time>2019-09-02T17:10:52Z</time>
      </trkpt>
      <trkpt lat="59.403185290806" lon="17.974123812689">
        <ele>93</ele>
        <time>2019-09-02T17:10:54Z</time>
      </trkpt>
      <trkpt lat="59.403430042286" lon="17.974409635479">
        <ele>93.4</ele>
        <time>2019-09-02T17:10:59Z</time>
      </trkpt>
      <trkpt lat="59.403950558276" lon="17.974743905651">
        <ele>93.6</ele>
        <time>2019-09-02T17:11:08Z</time>
      </trkpt>
      <trkpt lat="59.404232776849" lon="17.974956219178">
        <ele>92.4</ele>
        <time>2019-09-02T17:11:12Z</time>
      </trkpt>
      <trkpt lat="59.404303520085" lon="17.9750348414">
        <ele>92.2</ele>
        <time>2019-09-02T17:11:13Z</time>
      </trkpt>
      <trkpt lat="59.404493537758" lon="17.975322005294">
        <ele>91.8</ele>
        <time>2019-09-02T17:11:16Z</time>
      </trkpt>
      <trkpt lat="59.404897712976" lon="17.976184335166">
        <ele>92.4</ele>
        <time>2019-09-02T17:11:24Z</time>
      </trkpt>
      <trkpt lat="59.405026710417" lon="17.976466386101">
        <ele>93</ele>
        <time>2019-09-02T17:11:27Z</time>
      </trkpt>
      <trkpt lat="59.40511027796" lon="17.976607202021">
        <ele>93.2</ele>
        <time>2019-09-02T17:11:29Z</time>
      </trkpt>
      <trkpt lat="59.405262744721" lon="17.976710634667">
        <ele>93.6</ele>
        <time>2019-09-02T17:11:32Z</time>
      </trkpt>
      <trkpt lat="59.405359304209" lon="17.976764949379">
        <ele>93.8</ele>
        <time>2019-09-02T17:11:34Z</time>
      </trkpt>
      <trkpt lat="59.405455109326" lon="17.976921020357">
        <ele>94.6</ele>
        <time>2019-09-02T17:11:37Z</time>
      </trkpt>
      <trkpt lat="59.405523254173" lon="17.976993104697">
        <ele>94.8</ele>
        <time>2019-09-02T17:11:39Z</time>
      </trkpt>
      <trkpt lat="59.40561654472" lon="17.976987321186">
        <ele>94.6</ele>
        <time>2019-09-02T17:11:41Z</time>
      </trkpt>
      <trkpt lat="59.405715786416" lon="17.976896545209">
        <ele>94.6</ele>
        <time>2019-09-02T17:11:43Z</time>
      </trkpt>
      <trkpt lat="59.405802371443" lon="17.976750448692">
        <ele>94.6</ele>
        <time>2019-09-02T17:11:45Z</time>
      </trkpt>
      <trkpt lat="59.405879484923" lon="17.976593707162">
        <ele>94.6</ele>
        <time>2019-09-02T17:11:47Z</time>
      </trkpt>
      <trkpt lat="59.406128175896" lon="17.976187017374">
        <ele>95.4</ele>
        <time>2019-09-02T17:11:53Z</time>
      </trkpt>
      <trkpt lat="59.406198835313" lon="17.976035891717">
        <ele>95.6</ele>
        <time>2019-09-02T17:11:55Z</time>
      </trkpt>
      <trkpt lat="59.406274440051" lon="17.975900943127">
        <ele>96</ele>
        <time>2019-09-02T17:11:57Z</time>
      </trkpt>
      <trkpt lat="59.406467223751" lon="17.975656526923">
        <ele>96.8</ele>
        <time>2019-09-02T17:12:02Z</time>
      </trkpt>
      <trkpt lat="59.406675849242" lon="17.975408003588">
        <ele>98</ele>
        <time>2019-09-02T17:12:07Z</time>
      </trkpt>
      <trkpt lat="59.406868297666" lon="17.975257297026">
        <ele>99</ele>
        <time>2019-09-02T17:12:12Z</time>
      </trkpt>
      <trkpt lat="59.406909620433" lon="17.975254866275">
        <ele>99.4</ele>
        <time>2019-09-02T17:12:13Z</time>
      </trkpt>
      <trkpt lat="59.407107600911" lon="17.975228547109">
        <ele>100</ele>
        <time>2019-09-02T17:12:17Z</time>
      </trkpt>
      <trkpt lat="59.407644545425" lon="17.974987651303">
        <ele>100.8</ele>
        <time>2019-09-02T17:12:27Z</time>
      </trkpt>
      <trkpt lat="59.40816128956" lon="17.974566125552">
        <ele>101</ele>
        <time>2019-09-02T17:12:37Z</time>
      </trkpt>
      <trkpt lat="59.408280983092" lon="17.974376359336">
        <ele>101</ele>
        <time>2019-09-02T17:12:40Z</time>
      </trkpt>
      <trkpt lat="59.408359605314" lon="17.974212409372">
        <ele>101.2</ele>
        <time>2019-09-02T17:12:42Z</time>
      </trkpt>
      <trkpt lat="59.408471838955" lon="17.974000347302">
        <ele>101.6</ele>
        <time>2019-09-02T17:12:45Z</time>
      </trkpt>
      <trkpt lat="59.408648361769" lon="17.974251888121">
        <ele>102</ele>
        <time>2019-09-02T17:12:50Z</time>
      </trkpt>
      <trkpt lat="59.408758164659" lon="17.97450342894">
        <ele>102.2</ele>
        <time>2019-09-02T17:12:53Z</time>
      </trkpt>
      <trkpt lat="59.408840894012" lon="17.974675425528">
        <ele>102.2</ele>
        <time>2019-09-02T17:12:55Z</time>
      </trkpt>
      <trkpt lat="59.408950445445" lon="17.974759244528">
        <ele>101.6</ele>
        <time>2019-09-02T17:12:57Z</time>
      </trkpt>
      <trkpt lat="59.40906485838" lon="17.974655895701">
        <ele>101.4</ele>
        <time>2019-09-02T17:12:59Z</time>
      </trkpt>
      <trkpt lat="59.409382951485" lon="17.974168739673">
        <ele>101</ele>
        <time>2019-09-02T17:13:05Z</time>
      </trkpt>
      <trkpt lat="59.409915537411" lon="17.9737105012">
        <ele>100.2</ele>
        <time>2019-09-02T17:13:13Z</time>
      </trkpt>
      <trkpt lat="59.409998434402" lon="17.973684936405">
        <ele>99.8</ele>
        <time>2019-09-02T17:13:14Z</time>
      </trkpt>
      <trkpt lat="59.410327591615" lon="17.973589885659">
        <ele>98.8</ele>
        <time>2019-09-02T17:13:18Z</time>
      </trkpt>
      <trkpt lat="59.410745010235" lon="17.973495756922">
        <ele>97.6</ele>
        <time>2019-09-02T17:13:23Z</time>
      </trkpt>
      <trkpt lat="59.411133343662" lon="17.973465917358">
        <ele>96.2</ele>
        <time>2019-09-02T17:13:28Z</time>
      </trkpt>
      <trkpt lat="59.411392763467" lon="17.973427695894">
        <ele>95.2</ele>
        <time>2019-09-02T17:13:31Z</time>
      </trkpt>
      <trkpt lat="59.411983855055" lon="17.973314204968">
        <ele>94.8</ele>
        <time>2019-09-02T17:13:38Z</time>
      </trkpt>
      <trkpt lat="59.412552986065" lon="17.973205659363">
        <ele>95</ele>
        <time>2019-09-02T17:13:45Z</time>
      </trkpt>
      <trkpt lat="59.413094540624" lon="17.973145225864">
        <ele>96.2</ele>
        <time>2019-09-02T17:13:53Z</time>
      </trkpt>
      <trkpt lat="59.413163523661" lon="17.973133742661">
        <ele>96.4</ele>
        <time>2019-09-02T17:13:54Z</time>
      </trkpt>
      <trkpt lat="59.413537775496" lon="17.973076745741">
        <ele>97.6</ele>
        <time>2019-09-02T17:14:00Z</time>
      </trkpt>
      <trkpt lat="59.413589659457" lon="17.973066436004">
        <ele>97.8</ele>
        <time>2019-09-02T17:14:01Z</time>
      </trkpt>
      <trkpt lat="59.413758973837" lon="17.973029220368">
        <ele>98.6</ele>
        <time>2019-09-02T17:14:04Z</time>
      </trkpt>
      <trkpt lat="59.413926863294" lon="17.972998374976">
        <ele>99.6</ele>
        <time>2019-09-02T17:14:07Z</time>
      </trkpt>
      <trkpt lat="59.414471435337" lon="17.972933582889">
        <ele>98.6</ele>
        <time>2019-09-02T17:14:16Z</time>
      </trkpt>
      <trkpt lat="59.414760527068" lon="17.972916902908">
        <ele>98.4</ele>
        <time>2019-09-02T17:14:20Z</time>
      </trkpt>
      <trkpt lat="59.415330160992" lon="17.972840292342">
        <ele>98</ele>
        <time>2019-09-02T17:14:28Z</time>
      </trkpt>
      <trkpt lat="59.415448094325" lon="17.972825456379">
        <ele>99.4</ele>
        <time>2019-09-02T17:14:30Z</time>
      </trkpt>
      <trkpt lat="59.415994426567" lon="17.972763933233">
        <ele>100.2</ele>
        <time>2019-09-02T17:14:40Z</time>
      </trkpt>
      <trkpt lat="59.416599096833" lon="17.97257559194">
        <ele>99.6</ele>
        <time>2019-09-02T17:14:49Z</time>
      </trkpt>
      <trkpt lat="59.416841501381" lon="17.97254038796">
        <ele>98.2</ele>
        <time>2019-09-02T17:14:52Z</time>
      </trkpt>
      <trkpt lat="59.417010564304" lon="17.972528066567">
        <ele>97</ele>
        <time>2019-09-02T17:14:54Z</time>
      </trkpt>
      <trkpt lat="59.41719194862" lon="17.972518846477">
        <ele>96</ele>
        <time>2019-09-02T17:14:56Z</time>
      </trkpt>
      <trkpt lat="59.417641469917" lon="17.972474841502">
        <ele>95</ele>
        <time>2019-09-02T17:15:01Z</time>
      </trkpt>
      <trkpt lat="59.417929974915" lon="17.972449611983">
        <ele>93.8</ele>
        <time>2019-09-02T17:15:04Z</time>
      </trkpt>
      <trkpt lat="59.418129380316" lon="17.972432512907">
        <ele>92</ele>
        <time>2019-09-02T17:15:06Z</time>
      </trkpt>
      <trkpt lat="59.418336329427" lon="17.972411474338">
        <ele>90.4</ele>
        <time>2019-09-02T17:15:08Z</time>
      </trkpt>
      <trkpt lat="59.418917865649" lon="17.972304102199">
        <ele>90</ele>
        <time>2019-09-02T17:15:14Z</time>
      </trkpt>
      <trkpt lat="59.419271917105" lon="17.972233358963">
        <ele>89.8</ele>
        <time>2019-09-02T17:15:19Z</time>
      </trkpt>
      <trkpt lat="59.419367135489" lon="17.972284572372">
        <ele>89.4</ele>
        <time>2019-09-02T17:15:21Z</time>
      </trkpt>
      <trkpt lat="59.419403429116" lon="17.972315669221">
        <ele>89.2</ele>
        <time>2019-09-02T17:15:22Z</time>
      </trkpt>
      <trkpt lat="59.419439806562" lon="17.972339892912">
        <ele>89</ele>
        <time>2019-09-02T17:15:23Z</time>
      </trkpt>
      <trkpt lat="59.419572324401" lon="17.972233861877">
        <ele>88.2</ele>
        <time>2019-09-02T17:15:26Z</time>
      </trkpt>
      <trkpt lat="59.419691095924" lon="17.97198215342">
        <ele>87.4</ele>
        <time>2019-09-02T17:15:29Z</time>
      </trkpt>
      <trkpt lat="59.41972579699" lon="17.971892131814">
        <ele>87.2</ele>
        <time>2019-09-02T17:15:30Z</time>
      </trkpt>
      <trkpt lat="59.41995378467" lon="17.971215461027">
        <ele>88.2</ele>
        <time>2019-09-02T17:15:37Z</time>
      </trkpt>
      <trkpt lat="59.420291826697" lon="17.970319855012">
        <ele>88.6</ele>
        <time>2019-09-02T17:15:46Z</time>
      </trkpt>
      <trkpt lat="59.420418058111" lon="17.96988919299">
        <ele>89.4</ele>
        <time>2019-09-02T17:15:50Z</time>
      </trkpt>
      <trkpt lat="59.420573793813" lon="17.969311093347">
        <ele>90.6</ele>
        <time>2019-09-02T17:15:55Z</time>
      </trkpt>
      <trkpt lat="59.420642190117" lon="17.969027617489">
        <ele>91.2</ele>
        <time>2019-09-02T17:15:58Z</time>
      </trkpt>
      <trkpt lat="59.420729613334" lon="17.968799797447">
        <ele>91.6</ele>
        <time>2019-09-02T17:16:01Z</time>
      </trkpt>
      <trkpt lat="59.421114342544" lon="17.967999409816">
        <ele>91.4</ele>
        <time>2019-09-02T17:16:10Z</time>
      </trkpt>
      <trkpt lat="59.421361608594" lon="17.967712581198">
        <ele>91</ele>
        <time>2019-09-02T17:16:15Z</time>
      </trkpt>
      <trkpt lat="59.421693615653" lon="17.967350902213">
        <ele>91</ele>
        <time>2019-09-02T17:16:22Z</time>
      </trkpt>
      <trkpt lat="59.42177936249" lon="17.967261048245">
        <ele>90.8</ele>
        <time>2019-09-02T17:16:24Z</time>
      </trkpt>
      <trkpt lat="59.421796293928" lon="17.967128446587">
        <ele>90.8</ele>
        <time>2019-09-02T17:16:26Z</time>
      </trkpt>
      <trkpt lat="59.421762933966" lon="17.966993330359">
        <ele>90.6</ele>
        <time>2019-09-02T17:16:29Z</time>
      </trkpt>
      <trkpt lat="59.421767041097" lon="17.966966592098">
        <ele>90.4</ele>
        <time>2019-09-02T17:16:31Z</time>
      </trkpt>
    </trkseg>
  </trk>
</gpx>